createdAt,value
2023-03-08T00:00:55.759Z,68.47
2023-03-08T00:03:23.488Z,73.18
2023-03-08T00:05:51.457Z,70.70
2023-03-08T00:08:19.061Z,71.00
2023-03-08T00:13:18.772Z,63.65
2023-03-08T00:15:46.326Z,63.95
2023-03-08T00:18:15.954Z,66.35
2023-03-08T00:20:43.805Z,67.20
2023-03-08T00:23:11.704Z,65.60
2023-03-08T00:25:39.352Z,76.45
2023-03-08T00:28:07.224Z,76.63
2023-03-08T00:30:34.785Z,66.40
2023-03-08T00:33:03.340Z,70.32
2023-03-08T00:35:31.041Z,69.90
2023-03-08T00:37:58.746Z,77.93
2023-03-08T00:40:26.393Z,72.63
2023-03-08T00:42:54.142Z,77.97
2023-03-08T00:45:21.764Z,68.20
2023-03-08T00:47:49.238Z,64.55
2023-03-08T00:50:17.078Z,72.60
2023-03-08T00:52:44.618Z,72.13
2023-03-08T00:55:14.085Z,63.15
2023-03-08T00:57:41.966Z,61.90
2023-03-08T01:00:12.898Z,65.03
2023-03-08T01:02:41.324Z,61.53
2023-03-08T01:05:09.819Z,60.35
2023-03-08T01:07:37.822Z,60.85
2023-03-08T01:10:07.197Z,63.00
2023-03-08T01:12:36.893Z,68.30
2023-03-08T01:15:05.038Z,68.80
2023-03-08T01:17:34.372Z,71.00
2023-03-08T01:20:01.929Z,71.93
2023-03-08T01:22:29.749Z,69.57
2023-03-08T01:24:57.299Z,67.15
2023-03-08T01:27:25.430Z,64.55
2023-03-08T01:29:52.987Z,65.85
2023-03-08T01:32:20.885Z,60.10
2023-03-08T01:34:49.223Z,66.85
2023-03-08T01:37:16.902Z,68.20
2023-03-08T01:39:44.499Z,70.47
2023-03-08T01:42:12.366Z,63.28
2023-03-08T01:45:28.079Z,64.07
2023-03-08T01:47:56.067Z,65.28
2023-03-08T01:50:30.931Z,68.40
2023-03-08T01:52:58.623Z,65.60
2023-03-08T01:55:26.556Z,64.53
2023-03-08T01:57:55.003Z,66.05
2023-03-08T02:00:24.070Z,67.75
2023-03-08T02:03:05.067Z,65.22
2023-03-08T02:05:32.957Z,64.55
2023-03-08T02:08:09.061Z,60.13
2023-03-08T02:10:38.725Z,64.18
2023-03-08T02:13:07.864Z,57.85
2023-03-08T02:15:39.049Z,58.83
2023-03-08T02:18:06.880Z,57.90
2023-03-08T02:20:40.275Z,59.42
2023-03-08T02:23:11.375Z,58.67
2023-03-08T02:25:39.066Z,43.15
2023-03-08T02:28:09.088Z,66.45
2023-03-08T02:30:37.502Z,61.05
2023-03-08T02:33:05.096Z,62.80
2023-03-08T02:35:32.885Z,60.40
2023-03-08T02:38:10.514Z,76.30
2023-03-08T02:40:38.936Z,97.80
2023-03-08T02:43:07.460Z,71.63
2023-03-08T02:45:36.136Z,62.80
2023-03-08T02:48:04.238Z,59.80
2023-03-08T02:50:32.002Z,60.33
2023-03-08T02:52:59.637Z,58.80
2023-03-08T02:55:27.673Z,56.95
2023-03-08T02:57:55.803Z,57.80
2023-03-08T03:00:24.456Z,54.58
2023-03-08T03:02:53.621Z,57.08
2023-03-08T03:05:21.194Z,55.13
2023-03-08T03:07:51.186Z,56.88
2023-03-08T03:10:21.977Z,58.25
2023-03-08T03:12:50.685Z,59.65
2023-03-08T03:15:21.014Z,44.17
2023-03-08T03:17:53.762Z,61.42
2023-03-08T03:20:21.338Z,62.35
2023-03-08T03:22:49.441Z,76.55
2023-03-08T03:25:18.791Z,74.35
2023-03-08T03:27:47.777Z,76.60
2023-03-08T03:30:16.752Z,75.43
2023-03-08T03:32:44.911Z,71.57
2023-03-08T03:35:16.306Z,70.00
2023-03-08T03:37:44.475Z,68.57
2023-03-08T03:40:12.803Z,63.17
2023-03-08T03:42:40.611Z,60.35
2023-03-08T03:45:13.067Z,64.10
2023-03-08T03:47:41.028Z,67.05
2023-03-08T03:50:10.634Z,69.00
2023-03-08T03:53:07.608Z,66.43
2023-03-08T03:55:36.094Z,60.30
2023-03-08T03:58:10.120Z,55.40
2023-03-08T04:00:58.351Z,52.53
2023-03-08T04:03:32.403Z,55.13
2023-03-08T04:06:17.592Z,56.08
2023-03-08T04:08:52.620Z,50.70
2023-03-08T04:11:25.366Z,51.50
2023-03-08T04:13:53.318Z,49.05
2023-03-08T04:16:30.166Z,48.80
2023-03-08T04:19:02.780Z,49.42
2023-03-08T04:21:32.227Z,45.47
2023-03-08T04:24:00.885Z,44.88
2023-03-08T04:26:32.634Z,44.08
2023-03-08T04:29:06.210Z,45.38
2023-03-08T04:31:37.214Z,45.33
2023-03-08T04:34:09.983Z,41.25
2023-03-08T04:36:39.022Z,44.22
2023-03-08T04:39:07.574Z,42.50
2023-03-08T04:41:40.148Z,43.38
2023-03-08T04:46:56.497Z,41.88
2023-03-08T04:49:31.448Z,40.90
2023-03-08T04:52:02.753Z,43.72
2023-03-08T04:54:34.522Z,41.58
2023-03-08T04:57:12.343Z,44.00
2023-03-08T04:59:40.547Z,44.10
2023-03-08T05:02:09.064Z,46.80
2023-03-08T05:04:38.178Z,49.25
2023-03-08T05:07:08.788Z,50.88
2023-03-08T05:09:37.634Z,58.70
2023-03-08T05:12:05.929Z,66.25
2023-03-08T05:14:53.910Z,91.68
2023-03-08T05:17:22.176Z,114.68
2023-03-08T05:19:55.864Z,102.47
2023-03-08T05:22:31.119Z,121.13
2023-03-08T05:24:59.140Z,109.38
2023-03-08T05:27:27.875Z,90.95
2023-03-08T05:29:56.325Z,71.38
2023-03-08T05:32:27.440Z,64.47
2023-03-08T05:34:57.529Z,69.63
2023-03-08T05:37:34.647Z,70.28
2023-03-08T05:40:06.512Z,75.93
2023-03-08T05:42:37.836Z,88.93
2023-03-08T05:45:07.263Z,87.07
2023-03-08T05:47:39.177Z,87.15
2023-03-08T05:50:09.988Z,70.13
2023-03-08T05:52:42.659Z,66.35
2023-03-08T05:55:20.368Z,55.33
2023-03-08T05:57:58.593Z,53.72
2023-03-08T06:00:26.487Z,56.28
2023-03-08T06:03:04.021Z,59.53
2023-03-08T06:05:34.688Z,58.63
2023-03-08T06:10:46.109Z,60.88
2023-03-08T06:13:15.479Z,63.95
2023-03-08T06:15:44.580Z,66.80
2023-03-08T06:18:16.475Z,69.72
2023-03-08T06:21:02.186Z,75.13
2023-03-08T06:23:32.079Z,76.78
2023-03-08T06:25:59.889Z,75.65
2023-03-08T06:28:28.609Z,75.45
2023-03-08T06:30:57.436Z,82.70
2023-03-08T06:33:30.103Z,102.85
2023-03-08T06:36:03.281Z,124.53
2023-03-08T06:38:33.545Z,122.68
2023-03-08T06:41:01.236Z,105.35
2023-03-08T06:43:29.361Z,115.75
2023-03-08T06:45:57.146Z,104.45
2023-03-08T06:48:29.140Z,103.28
2023-03-08T06:50:56.771Z,97.00
2023-03-08T06:53:24.488Z,79.00
2023-03-08T06:55:57.740Z,62.10
2023-03-08T06:58:25.516Z,59.60
2023-03-08T07:00:55.216Z,63.28
2023-03-08T07:03:23.307Z,63.97
2023-03-08T07:05:50.847Z,56.63
2023-03-08T07:08:18.471Z,56.10
2023-03-08T07:10:46.205Z,57.72
2023-03-08T07:13:15.465Z,56.97
2023-03-08T07:15:43.139Z,57.90
2023-03-08T07:18:13.586Z,55.90
2023-03-08T07:20:42.084Z,54.80
2023-03-08T07:23:09.783Z,55.90
2023-03-08T07:25:40.533Z,62.83
2023-03-08T07:28:08.317Z,58.10
2023-03-08T07:30:35.829Z,56.35
2023-03-08T07:33:05.727Z,63.25
2023-03-08T07:35:33.276Z,65.75
2023-03-08T07:38:00.960Z,63.13
2023-03-08T07:40:28.617Z,56.42
2023-03-08T07:42:56.331Z,56.38
2023-03-08T07:45:38.513Z,44.60
2023-03-08T07:48:06.800Z,61.00
2023-03-08T07:50:34.825Z,48.97
2023-03-08T07:53:04.526Z,59.22
2023-03-08T07:55:32.283Z,43.70
2023-03-08T07:58:04.125Z,61.05
2023-03-08T08:00:32.519Z,55.40
2023-03-08T08:03:00.188Z,39.83
2023-03-08T08:05:28.259Z,39.65
2023-03-08T08:07:56.527Z,32.75
2023-03-08T08:10:24.130Z,32.65
2023-03-08T08:12:52.928Z,32.75
2023-03-08T08:15:21.097Z,35.88
2023-03-08T08:17:51.470Z,42.15
2023-03-08T08:20:19.145Z,72.65
2023-03-08T08:22:46.830Z,46.45
2023-03-08T08:25:15.408Z,29.63
2023-03-08T08:27:43.279Z,42.45
2023-03-08T08:30:13.621Z,33.15
2023-03-08T08:32:41.569Z,38.15
2023-03-08T08:35:09.579Z,30.67
2023-03-08T08:37:37.308Z,33.08
2023-03-08T08:40:08.747Z,44.88
2023-03-08T08:42:39.601Z,32.95
2023-03-08T08:45:08.782Z,28.50
2023-03-08T08:47:36.426Z,32.53
2023-03-08T08:50:05.225Z,31.13
2023-03-08T08:52:33.247Z,25.80
2023-03-08T08:55:01.894Z,26.88
2023-03-08T08:57:29.840Z,25.73
2023-03-08T08:59:57.520Z,29.63
2023-03-08T09:02:25.210Z,26.90
2023-03-08T09:04:53.609Z,26.13
2023-03-08T09:07:21.735Z,54.70
2023-03-08T09:09:49.433Z,32.67
2023-03-08T09:12:22.594Z,41.85
2023-03-08T09:14:51.448Z,26.75
2023-03-08T09:17:19.484Z,26.63
2023-03-08T09:19:48.481Z,27.80
2023-03-08T09:22:16.456Z,24.42
2023-03-08T09:24:45.977Z,25.13
2023-03-08T09:27:15.074Z,20.80
2023-03-08T09:29:43.102Z,24.05
2023-03-08T09:32:10.738Z,23.27
2023-03-08T09:34:38.802Z,25.13
2023-03-08T09:37:08.360Z,24.25
2023-03-08T09:39:36.034Z,26.70
2023-03-08T09:42:05.170Z,26.00
2023-03-08T09:44:54.881Z,26.15
2023-03-08T09:47:32.067Z,25.45
2023-03-08T09:50:12.062Z,22.17
2023-03-08T09:53:06.225Z,18.20
2023-03-08T09:55:35.489Z,20.55
2023-03-08T09:58:16.473Z,17.98
2023-03-08T10:00:44.390Z,19.20
2023-03-08T10:03:50.547Z,15.35
2023-03-08T10:06:36.760Z,15.23
2023-03-08T10:09:14.487Z,16.83
2023-03-08T10:12:01.192Z,15.80
2023-03-08T10:14:35.282Z,16.63
2023-03-08T10:17:05.955Z,16.67
2023-03-08T10:19:37.784Z,17.48
2023-03-08T10:22:28.330Z,16.67
2023-03-08T10:25:01.822Z,15.85
2023-03-08T10:27:34.987Z,16.40
2023-03-08T10:30:14.450Z,16.27
2023-03-08T10:32:46.336Z,19.88
2023-03-08T10:35:14.035Z,14.35
2023-03-08T10:37:50.839Z,27.63
2023-03-08T10:40:21.437Z,18.45
2023-03-08T10:42:53.916Z,15.77
2023-03-08T10:45:22.532Z,14.82
2023-03-08T10:48:01.285Z,14.38
2023-03-08T10:50:30.604Z,12.00
2023-03-08T10:53:14.792Z,14.93
2023-03-08T10:55:50.318Z,13.43
2023-03-08T10:58:35.680Z,17.55
2023-03-08T11:01:22.358Z,14.73
2023-03-08T11:04:07.257Z,14.52
2023-03-08T11:06:37.568Z,11.02
2023-03-08T11:09:19.958Z,15.82
2023-03-08T11:11:47.638Z,20.77
2023-03-08T11:14:15.196Z,11.43
2023-03-08T11:16:55.343Z,12.25
2023-03-08T11:19:46.146Z,18.67
2023-03-08T11:22:32.277Z,16.57
2023-03-08T11:25:09.212Z,14.68
2023-03-08T11:27:58.716Z,11.82
2023-03-08T11:30:38.271Z,13.40
2023-03-08T11:33:20.060Z,12.55
2023-03-08T11:36:23.193Z,12.50
2023-03-08T11:39:11.250Z,22.40
2023-03-08T11:41:49.455Z,31.48
2023-03-08T11:44:56.329Z,14.20
2023-03-08T11:47:44.147Z,31.80
2023-03-08T11:50:41.523Z,47.15
2023-03-08T11:53:28.191Z,12.40
2023-03-08T11:56:17.841Z,18.50
2023-03-08T11:59:07.254Z,22.77
2023-03-08T12:02:06.663Z,9.85
2023-03-08T12:04:44.166Z,10.88
2023-03-08T12:07:28.264Z,12.00
2023-03-08T12:10:00.688Z,11.00
2023-03-08T12:12:35.518Z,14.63
2023-03-08T12:15:41.008Z,11.88
2023-03-08T12:18:34.238Z,13.32
2023-03-08T12:21:49.240Z,12.38
2023-03-08T12:24:44.795Z,9.07
2023-03-08T12:27:27.434Z,12.63
2023-03-08T12:30:01.162Z,11.30
2023-03-08T12:32:43.230Z,12.00
2023-03-08T12:35:26.853Z,11.38
2023-03-08T12:38:18.324Z,10.85
2023-03-08T12:40:50.839Z,10.80
2023-03-08T12:43:21.334Z,10.45
2023-03-08T12:45:57.560Z,11.25
2023-03-08T12:48:44.586Z,10.40
2023-03-08T12:51:12.179Z,9.75
2023-03-08T12:53:49.179Z,10.18
2023-03-08T12:56:34.859Z,9.35
2023-03-08T12:59:24.019Z,6.10
2023-03-08T13:01:57.844Z,8.35
2023-03-08T13:04:41.455Z,9.60
2023-03-08T13:07:25.940Z,9.57
2023-03-08T13:10:21.276Z,9.00
2023-03-08T13:12:48.763Z,9.77
2023-03-08T13:15:19.561Z,10.25
2023-03-08T13:18:05.907Z,15.20
2023-03-08T13:20:41.645Z,9.60
2023-03-08T13:23:16.189Z,10.10
2023-03-08T13:26:00.605Z,11.23
2023-03-08T13:28:46.567Z,11.75
2023-03-08T13:31:17.867Z,15.45
2023-03-08T13:33:48.806Z,12.10
2023-03-08T13:36:27.033Z,18.70
2023-03-08T13:39:04.260Z,18.10
2023-03-08T13:41:33.649Z,21.17
2023-03-08T13:44:08.268Z,21.30
2023-03-08T13:46:37.485Z,18.75
2023-03-08T13:49:15.543Z,14.55
2023-03-08T13:51:43.852Z,11.10
2023-03-08T13:54:16.594Z,19.42
2023-03-08T13:56:44.386Z,13.88
2023-03-08T13:59:20.417Z,12.50
2023-03-08T14:01:49.677Z,18.95
2023-03-08T14:04:24.042Z,13.68
2023-03-08T14:06:57.545Z,15.45
2023-03-08T14:09:25.986Z,12.02
2023-03-08T14:12:04.840Z,14.82
2023-03-08T14:14:40.715Z,11.63
2023-03-08T14:17:27.252Z,28.95
2023-03-08T14:20:00.756Z,45.90
2023-03-08T14:22:39.219Z,16.30
2023-03-08T14:25:20.689Z,35.85
2023-03-08T14:27:48.501Z,29.40
2023-03-08T14:30:18.579Z,17.25
2023-03-08T14:33:14.493Z,12.95
2023-03-08T14:35:53.640Z,10.88
2023-03-08T14:38:29.260Z,23.23
2023-03-08T14:40:57.058Z,19.98
2023-03-08T14:43:25.625Z,15.50
2023-03-08T14:45:57.990Z,15.55
2023-03-08T14:48:30.020Z,11.93
2023-03-08T14:51:05.528Z,11.00
2023-03-08T14:53:38.894Z,11.00
2023-03-08T14:56:16.837Z,10.55
2023-03-08T14:58:49.320Z,12.77
2023-03-08T15:01:29.080Z,11.30
2023-03-08T15:03:56.956Z,11.65
2023-03-08T15:06:27.889Z,11.98
2023-03-08T15:08:55.599Z,12.98
2023-03-08T15:11:23.718Z,13.95
2023-03-08T15:13:51.662Z,13.90
2023-03-08T15:16:19.511Z,14.32
2023-03-08T15:18:47.121Z,12.75
2023-03-08T15:21:15.752Z,13.80
2023-03-08T15:23:44.870Z,13.13
2023-03-08T15:26:14.490Z,14.48
2023-03-08T15:28:42.061Z,12.20
2023-03-08T15:31:09.728Z,13.95
2023-03-08T15:33:37.460Z,13.15
2023-03-08T15:36:05.813Z,17.25
2023-03-08T15:38:33.530Z,15.15
2023-03-08T15:41:05.737Z,13.75
2023-03-08T15:43:33.747Z,18.08
2023-03-08T15:46:01.306Z,18.48
2023-03-08T15:48:28.857Z,17.40
2023-03-08T15:50:57.386Z,16.45
2023-03-08T15:53:35.295Z,16.90
2023-03-08T15:56:03.409Z,18.58
2023-03-08T15:58:31.885Z,17.33
2023-03-08T16:00:59.428Z,16.15
2023-03-08T16:03:30.878Z,15.23
2023-03-08T16:05:59.957Z,14.95
2023-03-08T16:08:29.610Z,14.77
2023-03-08T16:11:03.838Z,15.77
2023-03-08T16:13:33.097Z,15.35
2023-03-08T16:16:01.389Z,15.55
2023-03-08T16:18:29.811Z,17.30
2023-03-08T16:20:58.322Z,15.38
2023-03-08T16:23:26.314Z,17.40
2023-03-08T16:26:14.718Z,15.68
2023-03-08T16:28:43.902Z,17.15
2023-03-08T16:31:11.499Z,17.55
2023-03-08T16:33:39.880Z,17.85
2023-03-08T16:36:08.010Z,18.25
2023-03-08T16:38:39.115Z,17.48
2023-03-08T16:41:13.325Z,17.52
2023-03-08T16:43:47.381Z,26.23
2023-03-08T16:46:17.489Z,21.00
2023-03-08T16:48:49.408Z,25.58
2023-03-08T16:53:45.340Z,17.38
2023-03-08T16:56:19.669Z,17.17
2023-03-08T16:58:47.347Z,31.60
2023-03-08T17:01:16.722Z,62.63
2023-03-08T17:03:44.348Z,27.67
2023-03-08T17:06:13.652Z,24.55
2023-03-08T17:08:41.290Z,21.05
2023-03-08T17:11:18.981Z,19.45
2023-03-08T17:13:52.127Z,24.30
2023-03-08T17:16:28.481Z,23.67
2023-03-08T17:18:56.751Z,20.85
2023-03-08T17:21:27.860Z,26.67
2023-03-08T17:26:23.655Z,41.22
2023-03-08T17:28:54.025Z,53.78
2023-03-08T17:31:23.049Z,23.88
2023-03-08T17:33:51.473Z,23.25
2023-03-08T17:36:21.566Z,21.90
2023-03-08T17:41:26.062Z,22.10
2023-03-08T17:43:54.051Z,28.67
2023-03-08T17:46:23.472Z,24.60
2023-03-08T17:48:51.716Z,23.75
2023-03-08T17:51:21.284Z,21.33
2023-03-08T17:53:49.362Z,14.82
2023-03-08T17:56:20.151Z,19.38
2023-03-08T17:58:48.536Z,20.23
2023-03-08T18:01:18.305Z,19.20
2023-03-08T18:03:46.092Z,21.83
2023-03-08T18:06:25.134Z,14.45
2023-03-08T18:08:52.869Z,14.88
2023-03-08T18:11:20.694Z,17.23
2023-03-08T18:13:49.339Z,17.23
2023-03-08T18:16:17.723Z,12.45
2023-03-08T18:18:51.422Z,14.88
2023-03-08T18:21:19.736Z,24.10
2023-03-08T18:23:47.760Z,27.88
2023-03-08T18:26:17.202Z,12.32
2023-03-08T18:28:44.872Z,10.63
2023-03-08T18:31:20.839Z,11.82
2023-03-08T18:33:48.458Z,11.48
2023-03-08T18:36:25.247Z,13.35
2023-03-08T18:38:52.827Z,8.68
2023-03-08T18:41:27.660Z,13.68
2023-03-08T18:44:01.477Z,68.60
2023-03-08T18:46:30.079Z,14.48
2023-03-08T18:49:02.031Z,19.67
2023-03-08T18:51:30.620Z,9.23
2023-03-08T18:53:58.577Z,10.70
2023-03-08T18:57:22.541Z,14.98
2023-03-08T19:00:02.506Z,10.65
2023-03-08T19:02:31.482Z,11.80
2023-03-08T19:04:59.175Z,11.27
2023-03-08T19:07:26.990Z,14.38
2023-03-08T19:09:55.475Z,11.70
2023-03-08T19:12:23.126Z,14.02
2023-03-08T19:14:52.548Z,17.88
2023-03-08T19:17:20.687Z,12.27
2023-03-08T19:19:48.451Z,13.93
2023-03-08T19:22:20.269Z,11.98
2023-03-08T19:24:48.582Z,13.00
2023-03-08T19:27:16.360Z,17.83
2023-03-08T19:29:44.221Z,14.00
2023-03-08T19:32:14.982Z,14.50
2023-03-08T19:34:44.829Z,11.80
2023-03-08T19:37:13.478Z,13.68
2023-03-08T19:39:41.284Z,12.38
2023-03-08T19:42:11.546Z,15.85
2023-03-08T19:44:40.279Z,11.65
2023-03-08T19:47:10.300Z,18.13
2023-03-08T19:49:40.088Z,19.42
2023-03-08T19:52:07.924Z,18.52
2023-03-08T19:54:39.466Z,13.67
2023-03-08T19:57:07.152Z,23.52
2023-03-08T19:59:38.820Z,23.50
2023-03-08T20:02:07.489Z,13.40
2023-03-08T20:04:36.672Z,23.17
2023-03-08T20:07:05.039Z,25.65
2023-03-08T20:09:33.723Z,21.00
2023-03-08T20:12:01.373Z,12.98
2023-03-08T20:14:30.276Z,34.42
2023-03-08T20:16:59.444Z,35.42
2023-03-08T20:19:32.013Z,26.08
2023-03-08T20:22:00.359Z,27.92
2023-03-08T20:24:35.473Z,38.35
2023-03-08T20:27:04.352Z,19.08
2023-03-08T20:29:31.966Z,18.50
2023-03-08T20:31:59.738Z,23.17
2023-03-08T20:34:27.633Z,16.90
2023-03-08T20:36:56.419Z,16.85
2023-03-08T20:39:24.387Z,17.17
2023-03-08T20:41:52.116Z,14.77
2023-03-08T20:44:19.965Z,20.08
2023-03-08T20:46:48.746Z,13.68
2023-03-08T20:49:16.970Z,10.50
2023-03-08T20:51:44.599Z,9.40
2023-03-08T20:54:12.624Z,13.07
2023-03-08T20:56:41.453Z,9.82
2023-03-08T20:59:09.013Z,9.35
2023-03-08T21:01:42.174Z,79.30
2023-03-08T21:04:10.005Z,10.45
2023-03-08T21:06:37.995Z,10.95
2023-03-08T21:09:05.686Z,10.40
2023-03-08T21:11:33.315Z,9.50
2023-03-08T21:14:00.902Z,9.65
2023-03-08T21:16:28.906Z,10.00
2023-03-08T21:18:58.939Z,9.93
2023-03-08T21:21:39.715Z,10.60
2023-03-08T21:24:12.500Z,10.90
2023-03-08T21:26:40.613Z,12.95
2023-03-08T21:29:11.104Z,15.05
2023-03-08T21:31:52.368Z,16.02
2023-03-08T21:34:21.052Z,13.60
2023-03-08T21:36:49.105Z,15.85
2023-03-08T21:39:17.028Z,16.67
2023-03-08T21:41:46.007Z,11.85
2023-03-08T21:44:17.936Z,11.95
2023-03-08T21:46:46.762Z,12.52
2023-03-08T21:49:22.091Z,11.60
2023-03-08T21:51:50.518Z,11.48
2023-03-08T21:54:18.819Z,10.02
2023-03-08T21:56:47.304Z,10.95
2023-03-08T21:59:16.904Z,12.35
2023-03-08T22:01:48.900Z,11.40
2023-03-08T22:04:17.171Z,13.05
2023-03-08T22:06:44.889Z,11.00
2023-03-08T22:09:14.071Z,11.63
2023-03-08T22:11:41.865Z,11.18
2023-03-08T22:14:10.261Z,12.60
2023-03-08T22:16:40.105Z,12.82
2023-03-08T22:19:07.994Z,13.85
2023-03-08T22:21:35.698Z,13.75
2023-03-08T22:24:10.240Z,12.90
2023-03-08T22:26:37.918Z,13.55
2023-03-08T22:29:05.808Z,13.20
2023-03-08T22:31:33.638Z,13.10
2023-03-08T22:34:02.046Z,13.15
2023-03-08T22:36:31.130Z,13.52
2023-03-08T22:38:58.740Z,13.70
2023-03-08T22:41:27.532Z,12.90
2023-03-08T22:43:55.331Z,12.32
2023-03-08T22:46:26.109Z,11.30
2023-03-08T22:48:55.744Z,12.70
2023-03-08T22:51:23.595Z,12.73
2023-03-08T22:53:51.348Z,12.20
2023-03-08T22:56:29.732Z,13.63
2023-03-08T22:58:58.210Z,12.73
2023-03-08T23:01:26.497Z,13.40
2023-03-08T23:03:55.278Z,13.60
2023-03-08T23:06:28.471Z,13.88
2023-03-08T23:08:57.147Z,14.60
2023-03-08T23:11:24.911Z,14.50
2023-03-08T23:13:52.875Z,14.13
2023-03-08T23:16:20.806Z,14.88
2023-03-08T23:18:49.257Z,15.70
2023-03-08T23:21:18.035Z,15.32
2023-03-08T23:23:45.706Z,15.48
2023-03-08T23:26:15.983Z,16.10
2023-03-08T23:28:43.763Z,16.30
2023-03-08T23:31:16.769Z,16.45
2023-03-08T23:33:45.827Z,16.05
2023-03-08T23:36:14.443Z,16.88
2023-03-08T23:38:42.295Z,18.05
2023-03-08T23:41:10.547Z,18.98
2023-03-08T23:43:39.011Z,18.10
2023-03-08T23:46:07.905Z,17.00
2023-03-08T23:48:36.465Z,17.98
2023-03-08T23:51:08.042Z,18.70
2023-03-08T23:53:35.666Z,16.95
2023-03-08T23:56:04.700Z,17.80
2023-03-08T23:58:32.701Z,16.50
